Time,TemperatureF,DewpointF,PressureIn,WindDirection,WindDirectionDegrees,WindSpeedMPH,WindSpeedGustMPH,Humidity,HourlyPrecipIn,Conditions,Clouds,dailyrainin,SoftwareType,DateUTC
2013-03-04 00:10:00,46.9,36.0,29.96,WNW,298,2.0,7.0,67,0.00,,,0.00,weatherlink.com 1.10,2013-03-04 08:10:00,
2013-03-04 00:25:00,47.9,37.0,29.97,West,266,5.0,15.0,65,0.00,,,0.00,weatherlink.com 1.10,2013-03-04 08:25:00,
2013-03-04 00:40:00,47.9,36.0,29.97,ENE,60,6.0,10.0,64,0.00,,,0.00,weatherlink.com 1.10,2013-03-04 08:40:00,
2013-03-04 00:55:00,48.1,37.0,29.98,South,191,4.0,15.0,65,0.00,,,0.00,weatherlink.com 1.10,2013-03-04 08:55:00,
2013-03-04 01:10:00,47.9,37.0,29.98,SSW,211,9.0,16.0,65,0.00,,,0.00,weatherlink.com 1.10,2013-03-04 09:10:00,
2013-03-04 01:25:00,47.5,37.0,29.98,WNW,298,3.0,14.0,68,0.00,,,0.00,weatherlink.com 1.10,2013-03-04 09:25:00,
2013-03-04 01:40:00,47.0,38.0,29.98,SSE,161,3.0,14.0,70,0.00,,,0.00,weatherlink.com 1.10,2013-03-04 09:40:00,
2013-03-04 01:55:00,46.8,38.0,29.98,South,181,3.0,15.0,71,0.00,,,0.00,weatherlink.com 1.10,2013-03-04 09:55:00,
2013-03-04 02:10:00,46.5,38.0,29.98,WNW,301,4.0,13.0,71,0.00,,,0.00,weatherlink.com 1.10,2013-03-04 10:10:00,
2013-03-04 02:25:00,46.8,37.0,29.98,NNW,330,4.0,15.0,69,0.00,,,0.00,weatherlink.com 1.10,2013-03-04 10:25:00,
2013-03-04 02:40:00,46.4,37.0,29.98,West,263,2.0,14.0,70,0.00,,,0.00,weatherlink.com 1.10,2013-03-04 10:40:00,
2013-03-04 02:55:00,46.1,37.0,29.98,West,265,7.0,20.0,71,0.00,,,0.00,weatherlink.com 1.10,2013-03-04 10:55:00,
2013-03-04 03:10:00,46.1,37.0,29.98,West,269,2.0,15.0,71,0.00,,,0.00,weatherlink.com 1.10,2013-03-04 11:10:00,
2013-03-04 03:26:00,46.0,37.0,29.98,NW,307,4.0,13.0,71,0.00,,,0.00,weatherlink.com 1.10,2013-03-04 11:26:00,
2013-03-04 03:41:00,45.6,37.0,29.99,WSW,238,2.0,6.0,72,0.00,,,0.00,weatherlink.com 1.10,2013-03-04 11:41:00,
2013-03-04 03:56:00,45.9,37.0,29.99,WNW,298,1.0,7.0,71,0.00,,,0.00,weatherlink.com 1.10,2013-03-04 11:56:00,
2013-03-04 04:11:00,45.6,37.0,30.00,NW,304,5.0,9.0,71,0.00,,,0.00,weatherlink.com 1.10,2013-03-04 12:11:00,
2013-03-04 04:26:00,45.0,37.0,29.99,WSW,257,1.0,7.0,73,0.00,,,0.00,weatherlink.com 1.10,2013-03-04 12:26:00,
2013-03-04 04:41:00,45.0,37.0,29.99,NE,34,2.0,4.0,73,0.00,,,0.00,weatherlink.com 1.10,2013-03-04 12:41:00,
2013-03-04 04:56:00,44.7,37.0,29.99,SSE,149,2.0,6.0,73,0.00,,,0.00,weatherlink.com 1.10,2013-03-04 12:56:00,
2013-03-04 05:11:00,44.4,36.0,29.99,SE,141,4.0,7.0,72,0.00,,,0.00,weatherlink.com 1.10,2013-03-04 13:11:00,
2013-03-04 05:26:00,45.1,36.0,30.00,SW,236,6.0,9.0,71,0.00,,,0.00,weatherlink.com 1.10,2013-03-04 13:26:00,
2013-03-04 05:41:00,45.1,36.0,30.01,NW,309,0.0,12.0,71,0.00,,,0.00,weatherlink.com 1.10,2013-03-04 13:41:00,
2013-03-04 05:56:00,45.2,37.0,30.00,WNW,294,9.0,16.0,72,0.00,,,0.00,weatherlink.com 1.10,2013-03-04 13:56:00,
2013-03-04 06:11:00,44.7,37.0,30.00,NW,304,1.0,15.0,73,0.00,,,0.00,weatherlink.com 1.10,2013-03-04 14:11:00,
2013-03-04 06:26:00,44.5,37.0,30.01,NW,309,2.0,5.0,74,0.00,,,0.00,weatherlink.com 1.10,2013-03-04 14:26:00,
2013-03-04 06:41:00,44.1,37.0,30.01,WNW,296,3.0,11.0,75,0.00,,,0.00,weatherlink.com 1.10,2013-03-04 14:41:00,
2013-03-04 06:56:00,43.9,36.0,30.03,West,266,1.0,8.0,74,0.00,,,0.00,weatherlink.com 1.10,2013-03-04 14:56:00,
2013-03-04 07:11:00,44.8,36.0,30.03,WNW,290,1.0,5.0,72,0.00,,,0.00,weatherlink.com 1.10,2013-03-04 15:11:00,
2013-03-04 07:26:00,46.0,37.0,30.04,West,269,3.0,10.0,70,0.00,,,0.00,weatherlink.com 1.10,2013-03-04 15:26:00,
2013-03-04 07:41:00,47.6,37.0,30.04,WNW,300,12.0,20.0,66,0.00,,,0.00,weatherlink.com 1.10,2013-03-04 15:41:00,
2013-03-04 07:56:00,48.5,37.0,30.05,NW,309,11.0,18.0,65,0.00,,,0.00,weatherlink.com 1.10,2013-03-04 15:56:00,
2013-03-04 08:11:00,49.2,37.0,30.05,NW,320,6.0,20.0,64,0.00,,,0.00,weatherlink.com 1.10,2013-03-04 16:11:00,
2013-03-04 08:26:00,50.0,37.0,30.05,WNW,291,7.0,21.0,62,0.00,,,0.00,weatherlink.com 1.10,2013-03-04 16:26:00,
2013-03-04 08:41:00,50.9,37.0,30.05,WNW,295,8.0,16.0,60,0.00,,,0.00,weatherlink.com 1.10,2013-03-04 16:41:00,
2013-03-04 08:56:00,52.2,36.0,30.05,NW,309,6.0,15.0,55,0.00,,,0.00,weatherlink.com 1.10,2013-03-04 16:56:00,
2013-03-04 09:11:00,54.1,35.0,30.05,NW,312,2.0,8.0,48,0.00,,,0.00,weatherlink.com 1.10,2013-03-04 17:11:00,
2013-03-04 09:26:00,55.4,34.0,30.05,NW,318,2.0,10.0,44,0.00,,,0.00,weatherlink.com 1.10,2013-03-04 17:26:00,
2013-03-04 09:42:00,56.6,34.0,30.05,North,1,4.0,7.0,42,0.00,,,0.00,weatherlink.com 1.10,2013-03-04 17:42:00,
2013-03-04 09:57:00,57.5,34.0,30.05,ENE,73,3.0,8.0,41,0.00,,,0.00,weatherlink.com 1.10,2013-03-04 17:57:00,
2013-03-04 10:12:00,58.5,32.0,30.06,ENE,73,6.0,9.0,37,0.00,,,0.00,weatherlink.com 1.10,2013-03-04 18:12:00,
2013-03-04 10:27:00,58.8,34.0,30.05,ENE,63,5.0,8.0,39,0.00,,,0.00,weatherlink.com 1.10,2013-03-04 18:27:00,
2013-03-04 10:42:00,58.7,34.0,30.05,NNW,342,6.0,10.0,39,0.00,,,0.00,weatherlink.com 1.10,2013-03-04 18:42:00,
2013-03-04 10:57:00,59.2,34.0,30.05,ENE,64,4.0,6.0,39,0.00,,,0.00,weatherlink.com 1.10,2013-03-04 18:57:00,
2013-03-04 11:12:00,59.5,34.0,30.05,East,82,3.0,8.0,39,0.00,,,0.00,weatherlink.com 1.10,2013-03-04 19:12:00,
2013-03-04 11:28:00,60.2,36.0,30.05,ENE,72,2.0,10.0,40,0.00,,,0.00,weatherlink.com 1.10,2013-03-04 19:28:00,
2013-03-04 11:42:00,60.3,33.0,30.04,SW,215,2.0,8.0,36,0.00,,,0.00,weatherlink.com 1.10,2013-03-04 19:42:00,
2013-03-04 11:57:00,61.1,33.0,30.04,ESE,123,4.0,8.0,35,0.00,,,0.00,weatherlink.com 1.10,2013-03-04 19:57:00,
2013-03-04 12:12:00,61.9,34.0,30.03,NW,322,4.0,5.0,35,0.00,,,0.00,weatherlink.com 1.10,2013-03-04 20:12:00,
2013-03-04 12:27:00,61.8,33.0,30.03,ESE,118,1.0,8.0,34,0.00,,,0.00,weatherlink.com 1.10,2013-03-04 20:27:00,
2013-03-04 12:42:00,62.3,33.0,30.03,NW,314,0.0,6.0,33,0.00,,,0.00,weatherlink.com 1.10,2013-03-04 20:42:00,
2013-03-04 12:57:00,62.4,34.0,30.02,NW,322,2.0,5.0,34,0.00,,,0.00,weatherlink.com 1.10,2013-03-04 20:57:00,
2013-03-04 13:12:00,63.8,32.0,30.01,ENE,59,4.0,4.0,31,0.00,,,0.00,weatherlink.com 1.10,2013-03-04 21:12:00,
2013-03-04 13:27:00,64.4,32.0,30.01,SSW,205,0.0,5.0,30,0.00,,,0.00,weatherlink.com 1.10,2013-03-04 21:27:00,
2013-03-04 13:42:00,65.4,39.0,30.00,WSW,248,10.0,12.0,38,0.00,,,0.00,weatherlink.com 1.10,2013-03-04 21:42:00,
2013-03-04 13:57:00,64.4,41.0,30.00,SSW,198,4.0,11.0,42,0.00,,,0.00,weatherlink.com 1.10,2013-03-04 21:57:00,
2013-03-04 14:12:00,63.9,40.0,30.00,SSW,205,4.0,11.0,42,0.00,,,0.00,weatherlink.com 1.10,2013-03-04 22:12:00,
2013-03-04 14:27:00,64.5,40.0,30.00,NNE,15,3.0,12.0,41,0.00,,,0.00,weatherlink.com 1.10,2013-03-04 22:27:00,
2013-03-04 14:42:00,65.3,40.0,30.00,SW,220,3.0,7.0,40,0.00,,,0.00,weatherlink.com 1.10,2013-03-04 22:42:00,
2013-03-04 14:57:00,64.9,40.0,30.00,SE,132,4.0,9.0,41,0.00,,,0.00,weatherlink.com 1.10,2013-03-04 22:57:00,
2013-03-04 15:12:00,65.4,40.0,30.00,SSW,212,6.0,7.0,39,0.00,,,0.00,weatherlink.com 1.10,2013-03-04 23:12:00,
2013-03-04 15:27:00,65.3,40.0,30.00,WSW,255,6.0,9.0,40,0.00,,,0.00,weatherlink.com 1.10,2013-03-04 23:27:00,
2013-03-04 15:42:00,64.8,40.0,30.00,SSW,197,5.0,10.0,41,0.00,,,0.00,weatherlink.com 1.10,2013-03-04 23:42:00,
2013-03-04 15:57:00,64.3,40.0,30.00,South,188,8.0,12.0,41,0.00,,,0.00,weatherlink.com 1.10,2013-03-04 23:57:00,
2013-03-04 16:12:00,63.7,40.0,30.00,SW,228,10.0,11.0,42,0.00,,,0.00,weatherlink.com 1.10,2013-03-05 00:12:00,
2013-03-04 16:27:00,63.0,41.0,30.00,South,180,7.0,11.0,44,0.00,,,0.00,weatherlink.com 1.10,2013-03-05 00:27:00,
2013-03-04 16:42:00,62.1,40.0,30.01,South,183,7.0,10.0,45,0.00,,,0.00,weatherlink.com 1.10,2013-03-05 00:42:00,
2013-03-04 16:57:00,60.6,41.0,30.01,SE,132,5.0,10.0,48,0.00,,,0.00,weatherlink.com 1.10,2013-03-05 00:57:00,
2013-03-04 17:12:00,59.1,40.0,30.01,South,183,2.0,10.0,50,0.00,,,0.00,weatherlink.com 1.10,2013-03-05 01:12:00,
2013-03-04 17:27:00,57.8,40.0,30.02,SSE,163,2.0,8.0,52,0.00,,,0.00,weatherlink.com 1.10,2013-03-05 01:27:00,
2013-03-04 17:42:00,57.0,40.0,30.02,SSE,167,1.0,9.0,54,0.00,,,0.00,weatherlink.com 1.10,2013-03-05 01:42:00,
2013-03-04 17:57:00,55.7,40.0,30.02,SSE,160,0.0,5.0,57,0.00,,,0.00,weatherlink.com 1.10,2013-03-05 01:57:00,
2013-03-04 18:12:00,54.2,40.0,30.02,SSE,158,1.0,3.0,60,0.00,,,0.00,weatherlink.com 1.10,2013-03-05 02:12:00,
2013-03-04 18:27:00,53.1,40.0,30.03,SSW,203,2.0,3.0,62,0.00,,,0.00,weatherlink.com 1.10,2013-03-05 02:27:00,
2013-03-04 18:42:00,52.2,40.0,30.04,WSW,246,1.0,4.0,64,0.00,,,0.00,weatherlink.com 1.10,2013-03-05 02:42:00,
2013-03-04 18:57:00,51.1,40.0,30.04,SE,132,2.0,3.0,66,0.00,,,0.00,weatherlink.com 1.10,2013-03-05 02:57:00,
2013-03-04 19:12:00,50.7,40.0,30.04,East,87,0.0,2.0,67,0.00,,,0.00,weatherlink.com 1.10,2013-03-05 03:12:00,
2013-03-04 19:27:00,50.3,40.0,30.04,SSE,166,0.0,1.0,68,0.00,,,0.00,weatherlink.com 1.10,2013-03-05 03:27:00,
2013-03-04 19:42:00,48.8,40.0,30.04,SE,143,0.0,1.0,71,0.00,,,0.00,weatherlink.com 1.10,2013-03-05 03:42:00,
2013-03-04 19:57:00,47.3,39.0,30.04,SSW,198,0.0,3.0,73,0.00,,,0.00,weatherlink.com 1.10,2013-03-05 03:57:00,
2013-03-04 20:12:00,46.4,39.0,30.05,NW,314,0.0,2.0,75,0.00,,,0.00,weatherlink.com 1.10,2013-03-05 04:12:00,
2013-03-04 20:27:00,45.6,38.0,30.06,SSE,157,0.0,3.0,76,0.00,,,0.00,weatherlink.com 1.10,2013-03-05 04:27:00,
2013-03-04 20:42:00,46.3,39.0,30.06,South,177,1.0,4.0,77,0.00,,,0.00,weatherlink.com 1.10,2013-03-05 04:42:00,
2013-03-04 20:57:00,46.4,40.0,30.06,WNW,302,0.0,5.0,77,0.00,,,0.00,weatherlink.com 1.10,2013-03-05 04:57:00,
2013-03-04 21:12:00,45.9,39.0,30.06,SE,134,1.0,3.0,78,0.00,,,0.00,weatherlink.com 1.10,2013-03-05 05:12:00,
2013-03-04 21:27:00,45.2,39.0,30.06,WSW,257,0.0,2.0,79,0.00,,,0.00,weatherlink.com 1.10,2013-03-05 05:27:00,
2013-03-04 21:42:00,44.3,39.0,30.07,WNW,283,0.0,2.0,81,0.00,,,0.00,weatherlink.com 1.10,2013-03-05 05:42:00,
2013-03-04 21:57:00,43.8,39.0,30.07,South,179,3.0,4.0,83,0.00,,,0.00,weatherlink.com 1.10,2013-03-05 05:57:00,
2013-03-04 22:12:00,44.7,40.0,30.07,West,277,0.0,8.0,84,0.00,,,0.00,weatherlink.com 1.10,2013-03-05 06:12:00,
2013-03-04 22:27:00,45.1,41.0,30.08,SW,229,2.0,7.0,85,0.00,,,0.00,weatherlink.com 1.10,2013-03-05 06:27:00,
2013-03-04 22:42:00,45.4,41.0,30.07,SE,140,2.0,6.0,85,0.00,,,0.00,weatherlink.com 1.10,2013-03-05 06:42:00,
2013-03-04 22:57:00,45.4,41.0,30.07,ESE,106,2.0,4.0,85,0.00,,,0.00,weatherlink.com 1.10,2013-03-05 06:57:00,
2013-03-04 23:12:00,45.3,41.0,30.07,ENE,62,1.0,5.0,85,0.00,,,0.00,weatherlink.com 1.10,2013-03-05 07:12:00,
2013-03-04 23:28:00,45.2,41.0,30.07,South,179,0.0,5.0,86,0.00,,,0.00,weatherlink.com 1.10,2013-03-05 07:28:00,
2013-03-04 23:43:00,44.9,41.0,30.07,SSE,155,2.0,5.0,86,0.00,,,0.00,weatherlink.com 1.10,2013-03-05 07:43:00,
2013-03-04 23:58:00,45.0,42.0,30.07,SSE,159,1.0,4.0,88,0.00,,,0.00,weatherlink.com 1.10,2013-03-05 07:58:00,